Santiago, Dominican Republic
Current Conditions -  °F | °C
As of 5:00 AM on Wednesday 22 Oct 2014 (Local Time) from MDST Reporting Station
Broken Clouds Broken Clouds  
Wind Chill: 72°   Ceiling: 1600
Heat Index: 72°   Visibility: 6mi
Dew Point: 72°   Wind: 7mph
Humidity: 100%   Direction: 120°ESE
Pressure: 29.91"   Gusts: NA
Location:  19.48°N, 70.69°W
Report Text: MDST 220900Z 12006KT 9999 BKN016 22/22 Q1013
Loading
Personal Weather Stations






























Interactive Weather Map
Tropical Storm Tracking
New forecast layout! Learn more

10-Day Weather Forecast

Advertisements
Track Severe Weather on mobile